createdAt,value
2022-10-26T00:00:44.369Z,1
2022-10-26T00:01:53.159Z,0.8
2022-10-26T00:03:02.739Z,0.8
2022-10-26T00:04:11.392Z,0.7
2022-10-26T00:05:21.098Z,0.9
2022-10-26T00:06:29.793Z,0.6
2022-10-26T00:07:37.523Z,1
2022-10-26T00:08:47.205Z,0.4
2022-10-26T00:09:54.897Z,0.6
2022-10-26T00:11:04.619Z,0.4
2022-10-26T00:12:14.700Z,0.8
2022-10-26T00:13:23.399Z,1.3
2022-10-26T00:14:33.120Z,0.9
2022-10-26T00:15:41.865Z,0.7
2022-10-26T00:16:49.544Z,0.7
2022-10-26T00:17:59.438Z,0.4
2022-10-26T00:19:08.026Z,0.9
2022-10-26T00:20:16.724Z,0.8
2022-10-26T00:21:26.415Z,0.4
2022-10-26T00:22:34.094Z,0.8
2022-10-26T00:23:43.820Z,0.5
2022-10-26T00:24:53.481Z,0.5
2022-10-26T00:26:02.179Z,0.7
2022-10-26T00:27:11.872Z,0.4
2022-10-26T00:28:20.533Z,0.5
2022-10-26T00:29:29.277Z,0.5
2022-10-26T00:30:38.977Z,0.6
2022-10-26T00:31:47.682Z,0.5
2022-10-26T00:32:57.411Z,0.5
2022-10-26T00:34:06.116Z,0.5
2022-10-26T00:35:21.333Z,0.6
2022-10-26T00:36:26.474Z,0.5
2022-10-26T00:37:35.183Z,0.6
2022-10-26T00:38:43.876Z,0.7
2022-10-26T00:39:53.540Z,0.4
2022-10-26T00:41:02.237Z,0.6
2022-10-26T00:42:11.931Z,0.5
2022-10-26T00:43:21.636Z,0.5
2022-10-26T00:44:34.585Z,0.6
2022-10-26T00:45:41.995Z,0.4
2022-10-26T00:46:50.686Z,1
2022-10-26T00:47:59.417Z,0.7
2022-10-26T00:49:09.231Z,0.5
2022-10-26T00:50:17.905Z,0.5
2022-10-26T00:51:27.626Z,0.8
2022-10-26T00:52:36.337Z,0.7
2022-10-26T00:53:45.043Z,0.7
2022-10-26T00:54:54.717Z,0.7
2022-10-26T00:56:00.422Z,0.6
2022-10-26T00:57:10.131Z,0.9
2022-10-26T00:58:17.824Z,0.6
2022-10-26T00:59:28.500Z,0.6
2022-10-26T01:00:38.210Z,0.7
2022-10-26T01:01:46.956Z,0.7
2022-10-26T01:02:56.658Z,0.8
2022-10-26T01:04:06.648Z,0.9
2022-10-26T01:05:15.311Z,0.6
2022-10-26T01:06:25.024Z,0.7
2022-10-26T01:07:33.760Z,0.6
2022-10-26T01:08:43.420Z,0.9
2022-10-26T01:09:53.123Z,0.7
2022-10-26T01:11:01.866Z,0.6
2022-10-26T01:12:11.547Z,0.6
2022-10-26T01:13:20.243Z,0.4
2022-10-26T01:14:29.924Z,0.5
2022-10-26T01:15:38.811Z,0.7
2022-10-26T01:16:48.504Z,0.6
2022-10-26T01:17:57.170Z,0.5
2022-10-26T01:19:06.868Z,0.5
2022-10-26T01:20:14.540Z,0.4
2022-10-26T01:21:24.228Z,0.6
2022-10-26T01:22:33.920Z,0.6
2022-10-26T01:23:42.655Z,0.8
2022-10-26T01:24:52.319Z,0.5
2022-10-26T01:25:59.991Z,0.5
2022-10-26T01:27:08.706Z,0.6
2022-10-26T01:28:18.387Z,0.4
2022-10-26T01:29:27.079Z,0.7
2022-10-26T01:30:36.926Z,0.6
2022-10-26T01:31:45.605Z,0.4
2022-10-26T01:32:54.298Z,0.5
2022-10-26T01:34:03.973Z,0.5
2022-10-26T01:35:12.654Z,0.6
2022-10-26T01:36:21.358Z,0.6
2022-10-26T01:37:31.014Z,0.5
2022-10-26T01:38:39.729Z,0.5
2022-10-26T01:39:47.423Z,0.5
2022-10-26T01:40:57.105Z,0.5
2022-10-26T01:42:04.789Z,0.7
2022-10-26T01:43:14.472Z,0.6
2022-10-26T01:44:22.154Z,0.5
2022-10-26T01:45:30.823Z,0.6
2022-10-26T01:46:40.500Z,0.7
2022-10-26T01:47:49.401Z,0.7
2022-10-26T01:48:57.857Z,0.6
2022-10-26T01:50:06.554Z,0.8
2022-10-26T01:51:14.264Z,0.7
2022-10-26T01:52:23.989Z,0.8
2022-10-26T01:53:33.676Z,0.6
2022-10-26T01:54:42.347Z,0.7
2022-10-26T01:55:52.099Z,0.7
2022-10-26T01:56:59.753Z,0.8
2022-10-26T01:58:09.420Z,0.9
2022-10-26T01:59:19.099Z,0.6
2022-10-26T02:00:26.829Z,0.8
2022-10-26T02:01:36.615Z,0.7
2022-10-26T02:02:45.267Z,0.5
2022-10-26T02:03:54.061Z,0.7
2022-10-26T02:05:03.612Z,0.5
2022-10-26T02:06:12.286Z,0.8
2022-10-26T02:07:21.994Z,0.6
2022-10-26T02:08:31.741Z,0.7
2022-10-26T02:09:39.426Z,0.6
2022-10-26T02:10:49.112Z,0.8
2022-10-26T02:11:56.832Z,0.5
2022-10-26T02:13:05.507Z,0.5
2022-10-26T02:15:23.920Z,0.6
2022-10-26T02:16:33.748Z,0.4
2022-10-26T02:17:42.442Z,0.7
2022-10-26T02:18:52.264Z,0.5
2022-10-26T02:20:01.963Z,0.6
2022-10-26T02:21:10.758Z,0.6
2022-10-26T02:22:19.457Z,0.4
2022-10-26T02:23:29.158Z,0.6
2022-10-26T02:24:38.863Z,0.6
2022-10-26T02:25:48.600Z,0.3
2022-10-26T02:26:58.303Z,0.4
2022-10-26T02:28:06.982Z,0.6
2022-10-26T02:29:16.648Z,0.7
2022-10-26T02:30:24.350Z,0.8
2022-10-26T02:31:34.102Z,0.8
2022-10-26T02:32:43.837Z,0.6
2022-10-26T02:33:52.503Z,0.8
2022-10-26T02:35:02.204Z,0.8
2022-10-26T02:36:10.881Z,0.6
2022-10-26T02:37:19.551Z,0.7
2022-10-26T02:38:29.255Z,0.7
2022-10-26T02:39:38.926Z,0.6
2022-10-26T02:40:47.599Z,0.8
2022-10-26T02:41:57.306Z,0.6
2022-10-26T02:43:06.995Z,0.6
2022-10-26T02:44:16.723Z,0.9
2022-10-26T02:45:26.391Z,0.7
2022-10-26T02:46:35.067Z,0.8
2022-10-26T02:47:44.770Z,0.7
2022-10-26T02:48:52.453Z,0.8
2022-10-26T02:50:02.134Z,0.8
2022-10-26T02:51:11.810Z,0.5
2022-10-26T02:52:21.488Z,0.4
2022-10-26T02:53:31.234Z,0.6
2022-10-26T02:54:39.918Z,0.8
2022-10-26T02:55:49.582Z,0.7
2022-10-26T02:56:58.260Z,0.6
2022-10-26T02:58:06.938Z,0.6
2022-10-26T02:59:16.637Z,0.9
2022-10-26T03:00:24.312Z,0.6
2022-10-26T03:01:33.046Z,0.5
2022-10-26T03:02:44.676Z,0.7
2022-10-26T03:03:52.375Z,0.5
2022-10-26T03:05:02.053Z,0.4
2022-10-26T03:06:10.716Z,0.6
2022-10-26T03:07:19.450Z,0.6
2022-10-26T03:09:37.799Z,0.7
2022-10-26T03:10:47.478Z,1
2022-10-26T03:11:57.205Z,0.8
2022-10-26T03:13:03.889Z,1.1
2022-10-26T03:14:13.574Z,1.5
2022-10-26T03:15:23.265Z,1.1
2022-10-26T03:16:32.028Z,1.1
2022-10-26T03:17:41.747Z,0.9
2022-10-26T03:18:49.406Z,1.1
2022-10-26T03:19:58.077Z,0.9
2022-10-26T03:21:07.790Z,1.1
2022-10-26T03:22:15.625Z,1.2
2022-10-26T03:23:25.357Z,1.1
2022-10-26T03:24:35.032Z,1.2
2022-10-26T03:25:44.711Z,1.1
2022-10-26T03:26:56.046Z,1.3
2022-10-26T03:28:04.082Z,1.4
2022-10-26T03:29:12.876Z,1.1
2022-10-26T03:30:22.578Z,1.3
2022-10-26T03:31:30.268Z,1.2
2022-10-26T03:32:40.024Z,1
2022-10-26T03:33:48.677Z,1.2
2022-10-26T03:34:57.354Z,1.1
2022-10-26T03:36:07.025Z,1.1
2022-10-26T03:37:15.701Z,1.1
2022-10-26T03:38:25.381Z,1
2022-10-26T03:39:35.097Z,1.3
2022-10-26T03:40:43.807Z,1
2022-10-26T03:43:02.228Z,1.1
2022-10-26T03:44:09.897Z,1.1
2022-10-26T03:45:19.745Z,1
2022-10-26T03:46:28.427Z,1.1
2022-10-26T03:47:37.101Z,1.2
2022-10-26T03:48:46.808Z,1.2
2022-10-26T03:49:55.597Z,1
2022-10-26T03:51:05.204Z,1.1
2022-10-26T03:52:13.881Z,1
2022-10-26T03:53:21.622Z,1.1
2022-10-26T03:54:30.300Z,1.1
2022-10-26T03:55:38.017Z,0.6
2022-10-26T03:56:48.355Z,0.8
2022-10-26T03:57:57.425Z,0.8
2022-10-26T03:59:06.092Z,0.9
2022-10-26T04:00:14.848Z,0.7
2022-10-26T04:01:23.564Z,0.6
2022-10-26T04:02:31.241Z,0.5
2022-10-26T04:03:40.933Z,0.8
2022-10-26T04:04:49.652Z,0.6
2022-10-26T04:05:58.287Z,0.7
2022-10-26T04:07:07.961Z,0.5
2022-10-26T04:08:16.739Z,0.7
2022-10-26T04:09:26.477Z,0.8
2022-10-26T04:10:35.199Z,0.9
2022-10-26T04:11:43.893Z,0.6
2022-10-26T04:12:53.614Z,0.9
2022-10-26T04:14:03.344Z,0.9
2022-10-26T04:15:12.083Z,0.7
2022-10-26T04:16:21.776Z,0.7
2022-10-26T04:17:31.464Z,1
2022-10-26T04:18:41.207Z,1
2022-10-26T04:19:50.969Z,1.1
2022-10-26T04:20:58.651Z,1.1
2022-10-26T04:22:08.349Z,1
2022-10-26T04:23:17.074Z,1.1
2022-10-26T04:24:24.702Z,0.9
2022-10-26T04:25:34.625Z,0.7
2022-10-26T04:26:42.191Z,0.7
2022-10-26T04:27:52.060Z,0.8
2022-10-26T04:29:00.592Z,1.1
2022-10-26T04:30:10.292Z,1
2022-10-26T04:31:20.004Z,0.7
2022-10-26T04:32:27.686Z,0.9
2022-10-26T04:33:36.410Z,0.7
2022-10-26T04:34:46.094Z,0.9
2022-10-26T04:35:53.787Z,1
2022-10-26T04:37:03.605Z,0.9
2022-10-26T04:38:12.409Z,1
2022-10-26T04:39:20.108Z,1
2022-10-26T04:40:29.843Z,1
2022-10-26T04:41:37.526Z,0.8
2022-10-26T04:42:47.434Z,1.4
2022-10-26T04:43:56.898Z,1.1
2022-10-26T04:45:06.620Z,1
2022-10-26T04:46:16.719Z,0.8
2022-10-26T04:47:24.965Z,0.9
2022-10-26T04:48:32.675Z,0.9
2022-10-26T04:49:42.344Z,0.8
2022-10-26T04:50:51.024Z,0.8
2022-10-26T04:52:00.753Z,0.8
2022-10-26T04:53:08.419Z,0.6
2022-10-26T04:54:16.148Z,0.7
2022-10-26T04:55:25.812Z,0.7
2022-10-26T04:56:33.524Z,0.7
2022-10-26T04:57:42.198Z,1
2022-10-26T04:58:51.889Z,0.7
2022-10-26T05:00:01.613Z,0.9
2022-10-26T05:01:11.378Z,0.8
2022-10-26T05:02:20.190Z,0.8
2022-10-26T05:03:30.086Z,0.8
2022-10-26T05:04:38.565Z,0.8
2022-10-26T05:05:46.262Z,0.8
2022-10-26T05:06:55.991Z,0.8
2022-10-26T05:08:05.731Z,0.7
2022-10-26T05:09:13.393Z,0.8
2022-10-26T05:10:23.082Z,0.7
2022-10-26T05:11:31.797Z,0.7
2022-10-26T05:12:41.483Z,0.8
2022-10-26T05:13:51.186Z,0.5
2022-10-26T05:14:58.851Z,0.7
2022-10-26T05:16:08.567Z,0.8
2022-10-26T05:17:17.274Z,0.9
2022-10-26T05:18:25.954Z,0.9
2022-10-26T05:19:35.655Z,0.7
2022-10-26T05:20:43.328Z,0.9
2022-10-26T05:21:52.037Z,0.8
2022-10-26T05:23:01.930Z,0.8
2022-10-26T05:24:12.391Z,1.1
2022-10-26T05:25:22.249Z,0.7
2022-10-26T05:26:30.946Z,0.6
2022-10-26T05:27:39.645Z,1
2022-10-26T05:28:49.497Z,0.6
2022-10-26T05:29:57.259Z,0.6
2022-10-26T05:31:06.843Z,0.5
2022-10-26T05:32:16.533Z,0.5
2022-10-26T05:33:25.218Z,0.7
2022-10-26T05:34:37.151Z,0.8
2022-10-26T05:35:43.634Z,0.8
2022-10-26T05:36:53.318Z,0.7
2022-10-26T05:38:03.018Z,1.1
2022-10-26T05:39:11.716Z,0.8
2022-10-26T05:40:20.444Z,0.7
2022-10-26T05:41:30.101Z,0.7
2022-10-26T05:42:38.758Z,0.8
2022-10-26T05:43:48.475Z,0.6
2022-10-26T05:44:58.178Z,0.7
2022-10-26T05:46:05.919Z,0.9
2022-10-26T05:47:16.597Z,0.8
2022-10-26T05:48:25.269Z,0.8
2022-10-26T05:49:33.979Z,0.8
2022-10-26T05:50:43.649Z,1
2022-10-26T05:51:53.489Z,0.6
2022-10-26T05:53:03.170Z,0.5
2022-10-26T05:54:13.979Z,0.6
2022-10-26T05:55:23.530Z,0.7
2022-10-26T05:56:33.189Z,0.8
2022-10-26T05:57:41.886Z,0.8
2022-10-26T05:58:50.557Z,0.7
2022-10-26T06:00:00.264Z,0.7
2022-10-26T06:01:08.078Z,0.8
2022-10-26T06:02:17.738Z,0.6
2022-10-26T06:03:25.376Z,0.6
2022-10-26T06:04:35.005Z,0.7
2022-10-26T06:05:44.731Z,0.8
2022-10-26T06:06:53.414Z,0.9
2022-10-26T06:08:03.100Z,0.7
2022-10-26T06:09:12.789Z,0.8
2022-10-26T06:10:20.465Z,0.7
2022-10-26T06:11:30.191Z,0.9
2022-10-26T06:12:39.859Z,1.1
2022-10-26T06:13:48.517Z,1.7
2022-10-26T06:14:58.227Z,1.6
2022-10-26T06:16:06.283Z,2
2022-10-26T06:17:15.958Z,1.9
2022-10-26T06:18:25.628Z,2
2022-10-26T06:19:34.292Z,2.1
2022-10-26T06:20:44.000Z,2.4
2022-10-26T06:21:52.682Z,1.9
2022-10-26T06:23:01.396Z,1.9
2022-10-26T06:24:11.115Z,1.6
2022-10-26T06:25:19.797Z,1.5
2022-10-26T06:26:28.628Z,1.5
2022-10-26T06:27:38.326Z,1.3
2022-10-26T06:28:49.890Z,1.4
2022-10-26T06:29:57.789Z,1.3
2022-10-26T06:31:07.459Z,1.3
2022-10-26T06:32:14.171Z,1.4
2022-10-26T06:33:29.237Z,1.2
2022-10-26T06:34:34.572Z,1.9
2022-10-26T06:35:42.229Z,1.4
2022-10-26T06:36:50.983Z,1.6
2022-10-26T06:37:57.617Z,1.5
2022-10-26T06:39:07.312Z,1.6
2022-10-26T06:40:16.985Z,1.8
2022-10-26T06:41:24.648Z,1.5
2022-10-26T06:42:34.347Z,1.7
2022-10-26T06:43:44.064Z,1.6
2022-10-26T06:44:52.713Z,1.7
2022-10-26T06:46:02.436Z,1.6
2022-10-26T06:47:10.103Z,1.9
2022-10-26T06:48:18.763Z,1.7
2022-10-26T06:49:28.482Z,1.9
2022-10-26T06:50:37.170Z,1.5
2022-10-26T06:51:46.861Z,1.8
2022-10-26T06:52:54.523Z,1.8
2022-10-26T06:54:04.213Z,1.8
2022-10-26T06:55:12.901Z,1.5
2022-10-26T06:56:20.576Z,2
2022-10-26T06:57:30.260Z,1.5
2022-10-26T06:58:38.938Z,1.8
2022-10-26T06:59:47.651Z,1.7
2022-10-26T07:00:57.315Z,1.4
2022-10-26T07:02:07.064Z,1.5
2022-10-26T07:03:16.740Z,1.4
2022-10-26T07:04:25.407Z,1.5
2022-10-26T07:05:34.064Z,1.4
2022-10-26T07:06:43.780Z,1.7
2022-10-26T07:07:51.757Z,1.5
2022-10-26T07:09:01.107Z,1.4
2022-10-26T07:10:10.788Z,1.5
2022-10-26T07:11:19.449Z,1.4
2022-10-26T07:12:30.811Z,1.3
2022-10-26T07:13:39.783Z,1.4
2022-10-26T07:14:47.452Z,1.6
2022-10-26T07:15:57.172Z,1.4
2022-10-26T07:17:06.850Z,1.4
2022-10-26T07:18:15.674Z,1.3
2022-10-26T07:19:25.339Z,1.3
2022-10-26T07:20:34.325Z,1.3
2022-10-26T07:21:44.006Z,1
2022-10-26T07:22:53.677Z,1.3
2022-10-26T07:24:02.376Z,1.4
2022-10-26T07:25:12.050Z,1.6
2022-10-26T07:26:21.756Z,0.8
2022-10-26T07:27:30.435Z,1.4
2022-10-26T07:28:40.106Z,1.3
2022-10-26T07:29:47.824Z,1.4
2022-10-26T07:30:57.517Z,1.4
2022-10-26T07:32:06.195Z,1
2022-10-26T07:33:15.858Z,1.2
2022-10-26T07:34:25.559Z,1
2022-10-26T07:35:33.376Z,1
2022-10-26T07:36:41.061Z,0.9
2022-10-26T07:37:50.723Z,0.6
2022-10-26T07:38:58.399Z,0.7
2022-10-26T07:40:08.133Z,0.5
2022-10-26T07:41:16.778Z,0.8
2022-10-26T07:42:25.427Z,0.5
2022-10-26T07:43:35.149Z,0.4
2022-10-26T07:44:43.834Z,0.4
2022-10-26T07:45:52.510Z,0.5
2022-10-26T07:47:02.217Z,0.5
2022-10-26T07:48:09.917Z,0.4
2022-10-26T07:49:19.751Z,0.6
2022-10-26T07:50:28.254Z,0.3
2022-10-26T07:51:35.923Z,0.5
2022-10-26T07:52:45.625Z,0.4
2022-10-26T07:53:54.299Z,0.4
2022-10-26T07:55:03.975Z,0.4
2022-10-26T07:56:13.727Z,0.5
2022-10-26T07:57:23.417Z,0.5
2022-10-26T07:58:33.223Z,0.6
2022-10-26T07:59:41.899Z,0.4
2022-10-26T08:00:50.634Z,0.5
2022-10-26T08:02:00.325Z,0.3
2022-10-26T08:03:07.930Z,0.3
2022-10-26T08:04:16.655Z,0.3
2022-10-26T08:05:26.390Z,0.5
2022-10-26T08:06:36.037Z,0.3
2022-10-26T08:07:45.748Z,0.2
2022-10-26T08:08:54.377Z,0.3
2022-10-26T08:10:03.293Z,0.3
2022-10-26T08:11:12.994Z,0.3
2022-10-26T08:12:21.696Z,0.4
2022-10-26T08:13:31.372Z,0.3
2022-10-26T08:14:41.073Z,0.4
2022-10-26T08:15:49.779Z,0.6
2022-10-26T08:16:59.456Z,0.3
2022-10-26T08:18:09.154Z,0.4
2022-10-26T08:19:16.844Z,0.3
2022-10-26T08:20:26.566Z,0.5
2022-10-26T08:21:39.733Z,0.4
2022-10-26T08:22:45.923Z,0.4
2022-10-26T08:23:55.639Z,0.5
2022-10-26T08:25:03.317Z,0.2
2022-10-26T08:26:13.013Z,0.5
2022-10-26T08:27:22.727Z,0.2
2022-10-26T08:28:30.426Z,0.3
2022-10-26T08:29:40.159Z,0.4
2022-10-26T08:30:48.844Z,0.5
2022-10-26T08:31:57.513Z,0.3
2022-10-26T08:33:07.349Z,0.3
2022-10-26T08:34:16.025Z,0.6
2022-10-26T08:35:25.722Z,0.4
2022-10-26T08:36:34.489Z,0.6
2022-10-26T08:37:42.111Z,0.5
2022-10-26T08:38:50.953Z,0.4
2022-10-26T08:40:02.228Z,0.6
2022-10-26T08:41:11.264Z,0.3
2022-10-26T08:42:20.946Z,0.4
2022-10-26T08:43:29.631Z,0.5
2022-10-26T08:44:39.366Z,0.3
2022-10-26T08:45:48.043Z,0.2
2022-10-26T08:46:55.714Z,0.4
2022-10-26T08:48:05.408Z,0.4
2022-10-26T08:49:14.120Z,0.4
2022-10-26T08:50:23.819Z,0.3
2022-10-26T08:51:31.553Z,0.3
2022-10-26T08:52:41.253Z,0.4
2022-10-26T08:53:50.907Z,0.6
2022-10-26T08:54:58.589Z,0.3
2022-10-26T08:56:08.331Z,0.4
2022-10-26T08:57:18.014Z,0.4
2022-10-26T08:58:25.686Z,0.4
2022-10-26T08:59:35.425Z,0.1
2022-10-26T09:00:44.140Z,0.2
2022-10-26T09:01:53.883Z,0.5
2022-10-26T09:03:03.568Z,0.4
2022-10-26T09:04:12.251Z,0.2
2022-10-26T09:05:21.943Z,0.3
2022-10-26T09:06:30.702Z,0.1
2022-10-26T09:07:38.413Z,0.3
2022-10-26T09:08:48.135Z,0.3
2022-10-26T09:09:56.822Z,0.3
2022-10-26T09:11:06.520Z,0.3
2022-10-26T09:12:16.212Z,0.2
2022-10-26T09:13:23.924Z,0.3
2022-10-26T09:14:33.578Z,0.1
2022-10-26T09:15:42.253Z,0.5
2022-10-26T09:16:49.952Z,0.3
2022-10-26T09:17:59.635Z,0.1
2022-10-26T09:19:09.356Z,0.2
2022-10-26T09:20:19.149Z,0.2
2022-10-26T09:21:28.776Z,0.2
2022-10-26T09:22:36.475Z,0.2
2022-10-26T09:23:46.173Z,0.2
2022-10-26T09:24:55.910Z,0.2
2022-10-26T09:26:03.572Z,0.2
2022-10-26T09:27:13.259Z,0.2
2022-10-26T09:28:20.948Z,0.2
2022-10-26T09:29:29.629Z,0.1
2022-10-26T09:30:39.326Z,0.1
2022-10-26T09:31:47.003Z,0.2
2022-10-26T09:32:56.701Z,0
2022-10-26T09:34:05.373Z,0.2
2022-10-26T09:35:15.108Z,0.1
2022-10-26T09:36:24.841Z,0
2022-10-26T09:37:33.529Z,0.1
2022-10-26T09:38:43.216Z,0.2
2022-10-26T09:39:52.928Z,0.1
2022-10-26T09:41:00.652Z,0.1
2022-10-26T09:42:10.401Z,0.2
2022-10-26T09:43:19.077Z,0.1
2022-10-26T09:44:28.773Z,0.1
2022-10-26T09:45:38.460Z,0.1
2022-10-26T09:46:46.129Z,0.1
2022-10-26T09:47:55.938Z,0.2
2022-10-26T09:49:05.656Z,0.2
2022-10-26T09:50:14.350Z,0.2
2022-10-26T09:51:24.047Z,0.2
2022-10-26T09:52:32.710Z,0.2
2022-10-26T09:53:40.396Z,0.2
2022-10-26T09:54:50.255Z,0.5
2022-10-26T09:55:57.951Z,0.2
2022-10-26T09:57:07.636Z,0.2
2022-10-26T09:58:17.317Z,0.2
2022-10-26T09:59:27.013Z,0.2
2022-10-26T10:00:36.709Z,0.1
2022-10-26T10:01:46.387Z,0.1
2022-10-26T10:02:54.264Z,0
2022-10-26T10:04:03.759Z,0.2
2022-10-26T10:05:19.416Z,0.1
2022-10-26T10:06:23.319Z,0.1
2022-10-26T10:07:33.013Z,0.1
2022-10-26T10:08:41.665Z,0.1
2022-10-26T10:09:51.357Z,0.4
2022-10-26T10:11:00.117Z,0.1
2022-10-26T10:12:09.773Z,0.1
2022-10-26T10:13:19.476Z,0.2
2022-10-26T10:14:28.160Z,0.1
2022-10-26T10:15:36.830Z,0.3
2022-10-26T10:16:46.580Z,0.2
2022-10-26T10:17:56.522Z,0.1
2022-10-26T10:19:05.922Z,0.1
2022-10-26T10:20:14.616Z,0.2
2022-10-26T10:21:23.279Z,0.2
2022-10-26T10:22:32.982Z,0.1
2022-10-26T10:23:41.687Z,0.2
2022-10-26T10:24:50.372Z,0.2
2022-10-26T10:26:00.068Z,0.2
2022-10-26T10:27:07.716Z,0.2
2022-10-26T10:28:17.500Z,0.8
2022-10-26T10:29:26.135Z,0.2
2022-10-26T10:30:35.798Z,0.1
2022-10-26T10:31:45.494Z,0.1
2022-10-26T10:32:54.318Z,0.2
2022-10-26T10:34:02.878Z,0.2
2022-10-26T10:35:12.545Z,0.2
2022-10-26T10:36:21.241Z,0.2
2022-10-26T10:37:30.925Z,0.1
2022-10-26T10:38:39.617Z,0.2
2022-10-26T10:39:47.409Z,0.1
2022-10-26T10:40:57.092Z,0.3
2022-10-26T10:42:06.759Z,0.2
2022-10-26T10:43:15.471Z,0.2
2022-10-26T10:44:25.166Z,0.2
2022-10-26T10:45:35.011Z,0.1
2022-10-26T10:46:44.716Z,0.2
2022-10-26T10:47:52.376Z,0.2
2022-10-26T10:49:02.043Z,0.2
2022-10-26T10:50:10.713Z,0.2
2022-10-26T10:51:18.419Z,0.1
2022-10-26T10:52:27.109Z,0
2022-10-26T10:53:34.784Z,0.1
2022-10-26T10:54:44.506Z,0.3
2022-10-26T10:55:54.166Z,0.1
2022-10-26T10:57:02.889Z,0.2
2022-10-26T10:58:12.555Z,0.1
2022-10-26T10:59:21.249Z,0.1
2022-10-26T11:00:28.945Z,0.1
2022-10-26T11:01:38.756Z,0.2
2022-10-26T11:02:47.378Z,0.1
2022-10-26T11:03:57.076Z,0.1
2022-10-26T11:05:06.763Z,0.3
2022-10-26T11:06:14.468Z,0.1
2022-10-26T11:07:24.168Z,0.1
2022-10-26T11:08:32.956Z,0.1
2022-10-26T11:09:41.772Z,0.3
2022-10-26T11:10:51.391Z,0.2
2022-10-26T11:11:59.069Z,0.1
2022-10-26T11:13:08.754Z,0.1
2022-10-26T11:14:18.508Z,0.2
2022-10-26T11:15:27.206Z,0.3
2022-10-26T11:16:36.889Z,0.2
2022-10-26T11:17:45.581Z,0.2
2022-10-26T11:18:54.262Z,0.2
2022-10-26T11:20:03.994Z,0.3
2022-10-26T11:21:12.759Z,0.1
2022-10-26T11:22:22.501Z,0.2
2022-10-26T11:23:32.183Z,0.2
2022-10-26T11:24:40.882Z,0.3
2022-10-26T11:25:50.604Z,0.2
2022-10-26T11:26:59.303Z,0.1
2022-10-26T11:28:07.999Z,0.2
2022-10-26T11:30:26.399Z,0.1
2022-10-26T11:31:36.095Z,0.1
2022-10-26T11:32:45.761Z,0.2
2022-10-26T11:33:53.503Z,0.2
2022-10-26T11:35:03.125Z,0.3
2022-10-26T11:36:11.831Z,0.1
2022-10-26T11:37:21.748Z,0.3
2022-10-26T11:38:38.720Z,0.2
2022-10-26T11:39:42.176Z,0.1
2022-10-26T11:40:51.862Z,0.1
2022-10-26T11:42:01.601Z,0.1
2022-10-26T11:43:11.404Z,0.4
2022-10-26T11:44:21.088Z,0.2
2022-10-26T11:45:29.802Z,0.3
2022-10-26T11:46:37.475Z,0.3
2022-10-26T11:47:47.339Z,0.1
2022-10-26T11:48:54.940Z,0.2
2022-10-26T11:50:03.645Z,0.3
2022-10-26T11:51:13.370Z,0.4
2022-10-26T11:52:23.043Z,0.2
2022-10-26T11:53:32.745Z,0.1
2022-10-26T11:54:42.487Z,0.2
2022-10-26T11:55:51.154Z,0.3
2022-10-26T11:57:00.833Z,0.3
2022-10-26T11:58:08.516Z,0.2
2022-10-26T11:59:16.222Z,0.3
2022-10-26T12:00:25.942Z,0.2
2022-10-26T12:01:35.718Z,0.2
2022-10-26T12:02:45.308Z,0.3
2022-10-26T12:03:54.983Z,0.2
2022-10-26T12:05:03.698Z,0.2
2022-10-26T12:06:13.515Z,0.1
2022-10-26T12:07:21.152Z,0.3
2022-10-26T12:08:30.820Z,0.4
2022-10-26T12:09:40.494Z,0.3
2022-10-26T12:10:48.180Z,0.2
2022-10-26T12:11:57.934Z,0.2
2022-10-26T12:13:06.617Z,0.3
2022-10-26T12:14:15.341Z,0.4
2022-10-26T12:15:27.488Z,0.2
2022-10-26T12:16:33.691Z,0.2
2022-10-26T12:17:42.389Z,0.2
2022-10-26T12:18:56.531Z,0.1
2022-10-26T12:20:00.709Z,0.3
2022-10-26T12:21:10.448Z,0.3
2022-10-26T12:22:20.131Z,0.3
2022-10-26T12:23:34.114Z,0.1
2022-10-26T12:24:40.505Z,0.2
2022-10-26T12:25:49.163Z,0.1
2022-10-26T12:26:56.871Z,0.2
2022-10-26T12:28:06.555Z,0.2
2022-10-26T12:29:16.275Z,0.2
2022-10-26T12:30:24.969Z,0.2
2022-10-26T12:31:34.660Z,0.3
2022-10-26T12:32:44.336Z,0.2
2022-10-26T12:33:54.038Z,0.2
2022-10-26T12:35:03.734Z,0.2
2022-10-26T12:36:12.416Z,0.3
2022-10-26T12:37:22.120Z,0.3
2022-10-26T12:38:33.765Z,0.6
2022-10-26T12:39:40.535Z,0.2
2022-10-26T12:40:50.338Z,0.4
2022-10-26T12:41:58.038Z,0.3
2022-10-26T12:43:06.772Z,0.2
2022-10-26T12:44:15.439Z,0.3
2022-10-26T12:45:24.119Z,0.2
2022-10-26T12:46:33.939Z,0.5
2022-10-26T12:47:41.676Z,0.3
2022-10-26T12:48:51.513Z,0.7
2022-10-26T12:50:01.210Z,0.2
2022-10-26T12:51:08.890Z,0.2
2022-10-26T12:52:18.608Z,0.4
2022-10-26T12:53:26.304Z,0.5
2022-10-26T12:54:35.068Z,0.2
2022-10-26T12:55:44.762Z,0.3
2022-10-26T12:56:52.475Z,0.2
2022-10-26T12:58:02.264Z,0.3
2022-10-26T12:59:11.921Z,0.1
2022-10-26T13:00:20.677Z,0.4
2022-10-26T13:01:30.461Z,0.2
2022-10-26T13:02:39.011Z,0.5
2022-10-26T13:03:47.733Z,0.3
2022-10-26T13:04:57.415Z,0.1
2022-10-26T13:06:06.140Z,0.1
2022-10-26T13:07:15.841Z,0.3
2022-10-26T13:08:25.543Z,0.2
2022-10-26T13:09:33.268Z,0.3
2022-10-26T13:10:42.955Z,0.4
2022-10-26T13:11:51.597Z,0.3
2022-10-26T13:13:00.265Z,0.2
2022-10-26T13:14:08.988Z,0.3
2022-10-26T13:15:16.842Z,0.2
2022-10-26T13:16:26.595Z,0.4
2022-10-26T13:17:36.265Z,0.3
2022-10-26T13:18:45.949Z,0.6
2022-10-26T13:19:55.629Z,0.6
2022-10-26T13:21:03.341Z,0.4
2022-10-26T13:22:12.020Z,0.3
2022-10-26T13:23:21.674Z,0.3
2022-10-26T13:24:29.377Z,0.1
2022-10-26T13:25:39.115Z,0.6
2022-10-26T13:26:48.820Z,0.3
2022-10-26T13:27:57.457Z,0.5
2022-10-26T13:29:07.139Z,0.2
2022-10-26T13:30:16.823Z,0.2
2022-10-26T13:31:25.505Z,0.2
2022-10-26T13:32:35.197Z,0.2
2022-10-26T13:33:43.879Z,0.2
2022-10-26T13:34:53.571Z,0.3
2022-10-26T13:36:02.273Z,0.2
2022-10-26T13:37:10.995Z,0.2
2022-10-26T13:38:20.734Z,0.3
2022-10-26T13:39:29.460Z,0.3
2022-10-26T13:40:39.170Z,0.3
2022-10-26T13:41:48.845Z,0.3
2022-10-26T13:42:57.539Z,0.2
2022-10-26T13:44:07.223Z,0.1
2022-10-26T13:45:15.929Z,0.2
2022-10-26T13:46:23.617Z,0.2
2022-10-26T13:47:33.299Z,0.3
2022-10-26T13:48:40.972Z,0.3
2022-10-26T13:49:49.648Z,0.4
2022-10-26T13:50:59.357Z,0.1
2022-10-26T13:52:09.010Z,0.2
2022-10-26T13:53:18.714Z,0.3
2022-10-26T13:54:28.381Z,0.4
2022-10-26T13:55:37.165Z,0.2
2022-10-26T13:56:46.864Z,0.2
2022-10-26T13:57:54.585Z,0.3
2022-10-26T13:59:04.398Z,0.4
2022-10-26T14:00:14.010Z,0.4
2022-10-26T14:01:21.849Z,0.3
2022-10-26T14:02:31.372Z,0.1
2022-10-26T14:03:40.058Z,0.4
2022-10-26T14:04:48.730Z,0.5
2022-10-26T14:05:57.414Z,0.2
2022-10-26T14:07:06.110Z,0.4
2022-10-26T14:08:15.792Z,0.3
2022-10-26T14:09:25.482Z,0.1
2022-10-26T14:10:34.157Z,0.3
2022-10-26T14:11:43.863Z,0.3
2022-10-26T14:12:52.813Z,0.4
2022-10-26T14:14:00.195Z,0.3
2022-10-26T14:15:09.896Z,0.4
2022-10-26T14:16:19.541Z,0.3
2022-10-26T14:17:28.199Z,0.2
2022-10-26T14:18:37.958Z,0.2
2022-10-26T14:19:46.639Z,0.3
2022-10-26T14:20:56.332Z,0.4
2022-10-26T14:22:06.010Z,0.4
2022-10-26T14:23:14.705Z,0.1
2022-10-26T14:24:31.413Z,0.2
2022-10-26T14:25:42.770Z,0.4
2022-10-26T14:26:45.790Z,0.1
2022-10-26T14:27:55.465Z,0.2
2022-10-26T14:29:03.129Z,0.2
2022-10-26T14:30:28.122Z,0.2
2022-10-26T14:31:23.435Z,0.2
2022-10-26T14:32:31.141Z,0.2
2022-10-26T14:33:40.853Z,0.2
2022-10-26T14:34:48.642Z,0.4
2022-10-26T14:35:57.312Z,0.1
2022-10-26T14:37:06.979Z,0.3
2022-10-26T14:38:14.638Z,0.3
2022-10-26T14:39:24.316Z,0.2
2022-10-26T14:40:32.968Z,0.2
2022-10-26T14:41:42.658Z,0.4
2022-10-26T14:42:51.547Z,0.1
2022-10-26T14:43:58.966Z,0.2
2022-10-26T14:45:15.175Z,0.1
2022-10-26T14:46:18.353Z,0.2
2022-10-26T14:47:27.057Z,0.3
2022-10-26T14:48:36.897Z,0.2
2022-10-26T14:49:46.640Z,0.4
2022-10-26T14:50:56.280Z,0.4
2022-10-26T14:52:05.974Z,0.2
2022-10-26T14:53:14.673Z,0.2
2022-10-26T14:54:24.378Z,0.3
2022-10-26T14:55:34.051Z,0.7
2022-10-26T14:56:42.725Z,0.3
2022-10-26T14:57:52.413Z,0.2
2022-10-26T14:59:01.224Z,0.6
2022-10-26T15:00:10.946Z,0.2
2022-10-26T15:01:19.742Z,0.2
2022-10-26T15:02:27.405Z,0.2
2022-10-26T15:03:36.020Z,0.2
2022-10-26T15:04:43.723Z,0.3
2022-10-26T15:05:53.418Z,0.5
2022-10-26T15:07:03.078Z,0.6
2022-10-26T15:08:16.190Z,0.4
2022-10-26T15:09:22.431Z,0.5
2022-10-26T15:10:31.118Z,0.6
2022-10-26T15:11:39.821Z,0.4
2022-10-26T15:12:49.497Z,0.3
2022-10-26T15:13:57.168Z,0.3
2022-10-26T15:15:06.920Z,0.4
2022-10-26T15:16:15.522Z,0.4
2022-10-26T15:17:23.315Z,0.3
2022-10-26T15:18:33.016Z,0.3
2022-10-26T15:19:41.660Z,0.1
2022-10-26T15:20:51.344Z,0.3
2022-10-26T15:22:01.136Z,0.2
2022-10-26T15:23:08.815Z,0.4
2022-10-26T15:24:18.517Z,0.4
2022-10-26T15:25:28.192Z,0.3
2022-10-26T15:26:36.866Z,0.3
2022-10-26T15:27:46.806Z,0.4
2022-10-26T15:28:55.294Z,0.7
2022-10-26T15:30:03.974Z,1
2022-10-26T15:31:13.652Z,0.8
2022-10-26T15:32:21.327Z,0.7
2022-10-26T15:33:31.020Z,0.7
2022-10-26T15:34:40.722Z,0.4
2022-10-26T15:35:49.367Z,0.3
2022-10-26T15:36:59.086Z,0.3
2022-10-26T15:38:07.717Z,0.5
2022-10-26T15:39:17.655Z,0.4
2022-10-26T15:40:27.357Z,0.3
2022-10-26T15:41:37.680Z,0.3
2022-10-26T15:42:44.715Z,0.2
2022-10-26T15:43:54.390Z,0.3
2022-10-26T15:45:04.106Z,0.7
2022-10-26T15:46:13.809Z,0.5
2022-10-26T15:47:22.499Z,0.5
2022-10-26T15:48:31.176Z,0.5
2022-10-26T15:49:40.854Z,0.5
2022-10-26T15:50:49.587Z,0.3
2022-10-26T15:51:59.376Z,0.2
2022-10-26T15:53:08.988Z,0.4
2022-10-26T15:54:16.683Z,0.6
2022-10-26T15:55:26.360Z,0.5
2022-10-26T15:56:35.061Z,0.2
2022-10-26T15:57:42.754Z,0.4
2022-10-26T15:58:52.464Z,0.2